Time;durP1;ratioP1;P1;durP2;ratioP2;P2;SDS_P1;SDS_P2;PMS_P1;PMS_P2;Temp;Humidity;BMP_temperature;BMP_pressure;BME280_temperature;BME280_humidity;BME280_pressure;Samples;Min_cycle;Max_cycle;Signal;HPM_P1;HPM_P2
2023/10/12 00:00:24;;;;;;;1.67;1.02;;;;;;;;;;4920794;28;59214;-68
2023/10/12 00:02:50;;;;;;;0.70;0.70;;;;;;;;;;4929435;28;58415;-67
2023/10/12 00:05:18;;;;;;;0.65;0.65;;;;;;;;;;4931361;28;58531;-67
2023/10/12 00:07:45;;;;;;;0.40;0.40;;;;;;;;;;4925952;28;58805;-68
2023/10/12 00:12:41;;;;;;;0.28;0.28;;;;;;;;;;4923875;28;59033;-67
2023/10/12 00:15:21;;;;;;;0.52;0.45;;;;;;;;;;4923470;28;59202;-68
2023/10/12 00:17:47;;;;;;;0.50;0.50;;;;;;;;;;4923733;28;64331;-68
2023/10/12 00:20:24;;;;;;;0.47;0.47;;;;;;;;;;4921595;28;58771;-67
2023/10/12 00:22:49;;;;;;;0.32;0.32;;;;;;;;;;4924126;28;58932;-67
2023/10/12 00:25:17;;;;;;;0.60;0.60;;;;;;;;;;4923590;28;59574;-68
2023/10/12 00:27:42;;;;;;;;;;;;;;;;;;4922080;28;58925;-68
2023/10/12 00:30:08;;;;;;;0.30;0.30;;;;;;;;;;4923086;28;58440;-67
2023/10/12 00:32:34;;;;;;;0.63;0.60;;;;;;;;;;4923754;28;58518;-67
2023/10/12 00:34:59;;;;;;;1.60;0.50;;;;;;;;;;4922066;28;59620;-68
2023/10/12 00:37:24;;;;;;;0.40;0.40;;;;;;;;;;4923032;28;58425;-67
2023/10/12 00:42:18;;;;;;;;;;;;;;;;;;4923166;28;58489;-68
2023/10/12 00:44:52;;;;;;;0.50;0.50;;;;;;;;;;4923486;28;58516;-68
2023/10/12 00:47:30;;;;;;;0.38;0.35;;;;;;;;;;4921701;28;59198;-68
2023/10/12 00:49:56;;;;;;;0.63;0.50;;;;;;;;;;4922211;28;58514;-68
2023/10/12 00:52:26;;;;;;;2.15;0.63;;;;;;;;;;4922366;28;59465;-70
2023/10/12 00:54:56;;;;;;;2.17;1.30;;;;;;;;;;4922987;28;58897;-70
2023/10/12 00:57:22;;;;;;;0.22;0.22;;;;;;;;;;4923404;28;58449;-70
2023/10/12 00:59:53;;;;;;;0.30;0.30;;;;;;;;;;4922755;28;60653;-70
2023/10/12 01:02:21;;;;;;;0.65;0.45;;;;;;;;;;4921134;28;58415;-70
2023/10/12 01:04:52;;;;;;;0.55;0.38;;;;;;;;;;4921343;28;59543;-67
2023/10/12 01:07:25;;;;;;;0.22;0.22;;;;;;;;;;4920947;28;60214;-69
2023/10/12 01:09:54;;;;;;;0.40;0.30;;;;;;;;;;4921277;28;58674;-67
2023/10/12 01:12:19;;;;;;;0.38;0.30;;;;;;;;;;4922151;28;59267;-68
2023/10/12 01:14:47;;;;;;;0.30;0.30;;;;;;;;;;4923304;28;58354;-68
2023/10/12 01:17:35;;;;;;;0.55;0.55;;;;;;;;;;4922070;28;58403;-67
2023/10/12 01:19:58;;;;;;;0.40;0.40;;;;;;;;;;4921042;28;60290;-67
2023/10/12 01:22:26;;;;;;;0.50;0.50;;;;;;;;;;4921362;28;58605;-67
2023/10/12 01:27:20;;;;;;;1.10;0.63;;;;;;;;;;4922854;28;58838;-67
2023/10/12 01:29:46;;;;;;;0.65;0.43;;;;;;;;;;4921754;28;58470;-67
2023/10/12 01:34:49;;;;;;;0.43;0.38;;;;;;;;;;4921356;28;58448;-67
2023/10/12 01:37:27;;;;;;;0.82;0.20;;;;;;;;;;4921808;28;58477;-68
2023/10/12 01:40:09;;;;;;;;;;;;;;;;;;4921732;28;60366;-67
2023/10/12 01:45:07;;;;;;;0.65;0.55;;;;;;;;;;4921294;28;58333;-67
2023/10/12 01:47:37;;;;;;;0.43;0.40;;;;;;;;;;4920524;28;58975;-68
2023/10/12 01:50:02;;;;;;;0.93;0.60;;;;;;;;;;4921737;28;58342;-68
2023/10/12 01:52:28;;;;;;;0.17;0.17;;;;;;;;;;4922461;28;59549;-66
2023/10/12 01:54:53;;;;;;;0.30;0.30;;;;;;;;;;4921383;28;58566;-68
2023/10/12 01:57:26;;;;;;;0.50;0.40;;;;;;;;;;4922386;28;58474;-68
2023/10/12 01:59:54;;;;;;;0.63;0.35;;;;;;;;;;4930843;28;63635;-67
2023/10/12 02:02:21;;;;;;;1.50;0.57;;;;;;;;;;4927969;28;58917;-68
2023/10/12 02:04:47;;;;;;;0.28;0.28;;;;;;;;;;4932554;28;58553;-68
2023/10/12 02:07:13;;;;;;;0.20;0.20;;;;;;;;;;4930625;28;59709;-67
2023/10/12 02:09:39;;;;;;;0.80;0.40;;;;;;;;;;4930040;28;58307;-67
2023/10/12 02:12:10;;;;;;;0.20;0.20;;;;;;;;;;4929103;28;59457;-67
2023/10/12 02:14:39;;;;;;;0.65;0.55;;;;;;;;;;4923020;28;60119;-67
2023/10/12 02:17:06;;;;;;;0.47;0.47;;;;;;;;;;4921746;28;58405;-68
2023/10/12 02:19:42;;;;;;;0.70;0.70;;;;;;;;;;4920903;28;60143;-67
2023/10/12 02:22:18;;;;;;;0.55;0.50;;;;;;;;;;4920243;28;58529;-67
2023/10/12 02:24:43;;;;;;;0.43;0.43;;;;;;;;;;4922136;28;58379;-67
2023/10/12 02:27:08;;;;;;;0.20;0.20;;;;;;;;;;4923050;28;58609;-67
2023/10/12 02:29:38;;;;;;;0.30;0.30;;;;;;;;;;4920597;28;58389;-68
2023/10/12 02:32:15;;;;;;;0.68;0.30;;;;;;;;;;4920939;28;59093;-68
2023/10/12 02:34:42;;;;;;;0.60;0.40;;;;;;;;;;4921474;28;58458;-68
2023/10/12 02:39:42;;;;;;;0.30;0.22;;;;;;;;;;4924323;28;58521;-69
2023/10/12 02:42:17;;;;;;;0.55;0.35;;;;;;;;;;4922601;28;59452;-68
2023/10/12 02:44:56;;;;;;;0.57;0.57;;;;;;;;;;4914921;28;58382;-68
2023/10/12 02:47:22;;;;;;;0.32;0.32;;;;;;;;;;4926991;28;58710;-67
2023/10/12 02:50:29;;;;;;;0.85;0.20;;;;;;;;;;4923769;28;58545;-67
2023/10/12 02:52:47;;;;;;;0.03;0.03;;;;;;;;;;4922893;28;59109;-66
2023/10/12 02:55:24;;;;;;;0.40;0.30;;;;;;;;;;4923568;28;58464;-67
2023/10/12 02:57:54;;;;;;;0.63;0.57;;;;;;;;;;4924802;28;58497;-67
2023/10/12 03:00:35;;;;;;;0.30;0.25;;;;;;;;;;4923115;28;59849;-67
2023/10/12 03:03:14;;;;;;;0.30;0.30;;;;;;;;;;4924512;28;64559;-68
2023/10/12 03:05:48;;;;;;;0.28;0.17;;;;;;;;;;4905578;28;58640;-69
2023/10/12 03:08:17;;;;;;;0.63;0.40;;;;;;;;;;4923719;28;59307;-68
2023/10/12 03:13:26;;;;;;;0.63;0.45;;;;;;;;;;4924317;28;58424;-68
2023/10/12 03:15:58;;;;;;;0.47;0.17;;;;;;;;;;4923049;28;59014;-67
2023/10/12 03:18:26;;;;;;;0.20;0.20;;;;;;;;;;4906784;28;58371;-67
2023/10/12 03:21:04;;;;;;;0.38;0.38;;;;;;;;;;4925468;28;58754;-68
2023/10/12 03:23:29;;;;;;;0.10;0.10;;;;;;;;;;4923266;28;59275;-68
2023/10/12 03:25:54;;;;;;;0.67;0.27;;;;;;;;;;4924017;28;58493;-69
2023/10/12 03:28:30;;;;;;;1.03;0.40;;;;;;;;;;4922789;28;59020;-67
2023/10/12 03:31:10;;;;;;;1.15;0.30;;;;;;;;;;4922028;28;59076;-68
2023/10/12 03:33:36;;;;;;;0.20;0.17;;;;;;;;;;4922844;28;57825;-67
2023/10/12 03:36:17;;;;;;;0.43;0.40;;;;;;;;;;4924257;28;59542;-67
2023/10/12 03:38:43;;;;;;;0.40;0.30;;;;;;;;;;4923816;28;58441;-68
2023/10/12 03:44:06;;;;;;;0.35;0.32;;;;;;;;;;4903538;28;58453;-67
2023/10/12 03:46:32;;;;;;;0.15;0.15;;;;;;;;;;4923956;28;58416;-67
2023/10/12 03:49:05;;;;;;;1.50;0.60;;;;;;;;;;4922248;28;59391;-67
2023/10/12 03:51:41;;;;;;;0.15;0.15;;;;;;;;;;4919956;28;58482;-68
2023/10/12 03:54:26;;;;;;;0.30;0.30;;;;;;;;;;4924515;28;58817;-68
2023/10/12 03:56:51;;;;;;;0.75;0.75;;;;;;;;;;4931595;28;64971;-67
2023/10/12 03:59:25;;;;;;;0.63;0.30;;;;;;;;;;4922662;28;60096;-67
2023/10/12 04:01:53;;;;;;;0.10;0.10;;;;;;;;;;4922505;28;59653;-68
2023/10/12 04:04:29;;;;;;;0.20;0.20;;;;;;;;;;4922306;28;59181;-68
2023/10/12 04:09:31;;;;;;;0.13;0.13;;;;;;;;;;4920633;28;58572;-68
2023/10/12 04:14:49;;;;;;;0.45;0.30;;;;;;;;;;4914424;28;58424;-68
2023/10/12 04:17:34;;;;;;;0.30;0.20;;;;;;;;;;4923845;28;59379;-68
2023/10/12 04:23:04;;;;;;;0.20;0.20;;;;;;;;;;4923355;28;57735;-67
2023/10/12 04:28:11;;;;;;;0.32;0.32;;;;;;;;;;4920842;28;58550;-67
2023/10/12 04:31:20;;;;;;;0.38;0.22;;;;;;;;;;4920395;28;59532;-69
2023/10/12 04:33:29;;;;;;;0.65;0.30;;;;;;;;;;4920870;28;58550;-66
2023/10/12 04:36:24;;;;;;;0.20;0.20;;;;;;;;;;4922757;28;58434;-71
2023/10/12 04:43:52;;;;;;;0.50;0.32;;;;;;;;;;4922415;28;58445;-71
2023/10/12 04:48:48;;;;;;;1.23;0.50;;;;;;;;;;4921331;28;58462;-68
2023/10/12 04:51:21;;;;;;;0.52;0.30;;;;;;;;;;4922131;28;59528;-69
2023/10/12 04:54:05;;;;;;;0.47;0.40;;;;;;;;;;4921585;28;63759;-68
2023/10/12 04:56:36;;;;;;;0.50;0.30;;;;;;;;;;4923194;28;58178;-69
2023/10/12 04:59:14;;;;;;;1.10;0.47;;;;;;;;;;4922670;28;59536;-69
2023/10/12 05:02:06;;;;;;;1.15;0.50;;;;;;;;;;4920361;28;59360;-70
2023/10/12 05:04:35;;;;;;;0.70;0.45;;;;;;;;;;4916388;28;58401;-71
2023/10/12 05:09:35;;;;;;;0.40;0.20;;;;;;;;;;4918925;28;58175;-69
2023/10/12 05:12:00;;;;;;;0.45;0.45;;;;;;;;;;4922803;28;58503;-69
2023/10/12 05:14:26;;;;;;;0.40;0.30;;;;;;;;;;4921184;28;58681;-70
2023/10/12 05:16:51;;;;;;;0.45;0.25;;;;;;;;;;4921434;28;58429;-71
2023/10/12 05:19:16;;;;;;;0.47;0.30;;;;;;;;;;4920684;28;60046;-70
2023/10/12 05:21:41;;;;;;;1.30;0.87;;;;;;;;;;4921683;28;59886;-70
2023/10/12 05:24:08;;;;;;;0.33;0.30;;;;;;;;;;4923091;28;58472;-71
2023/10/12 05:26:35;;;;;;;0.63;0.40;;;;;;;;;;4922121;28;59918;-69
2023/10/12 05:29:18;;;;;;;0.40;0.30;;;;;;;;;;4920333;28;58502;-70
2023/10/12 05:31:49;;;;;;;0.40;0.35;;;;;;;;;;4922880;28;59623;-70
2023/10/12 05:34:52;;;;;;;0.85;0.43;;;;;;;;;;4922237;28;59361;-70
2023/10/12 05:39:47;;;;;;;0.52;0.47;;;;;;;;;;4921035;28;58287;-72
2023/10/12 05:42:14;;;;;;;0.28;0.28;;;;;;;;;;4920486;28;59796;-71
2023/10/12 05:44:43;;;;;;;0.30;0.30;;;;;;;;;;4922375;28;58624;-71
2023/10/12 05:47:11;;;;;;;1.05;0.40;;;;;;;;;;4908651;28;59688;-71
2023/10/12 05:49:36;;;;;;;1.50;0.52;;;;;;;;;;4921453;28;58434;-70
2023/10/12 05:52:04;;;;;;;0.37;0.30;;;;;;;;;;4913790;28;58671;-70
2023/10/12 05:54:31;;;;;;;0.63;0.20;;;;;;;;;;4921022;28;58569;-70
2023/10/12 05:56:56;;;;;;;0.52;0.52;;;;;;;;;;4923723;28;58486;-70
2023/10/12 05:59:24;;;;;;;0.50;0.50;;;;;;;;;;4922474;28;59610;-71
2023/10/12 06:01:49;;;;;;;0.65;0.40;;;;;;;;;;4922369;28;58429;-71
2023/10/12 06:04:15;;;;;;;0.40;0.40;;;;;;;;;;4922321;28;58632;-71
2023/10/12 06:06:41;;;;;;;0.32;0.30;;;;;;;;;;4923723;28;59045;-70
2023/10/12 06:09:20;;;;;;;0.70;0.30;;;;;;;;;;4920987;28;58945;-70
2023/10/12 06:11:46;;;;;;;0.52;0.40;;;;;;;;;;4904326;28;58268;-69
2023/10/12 06:14:14;;;;;;;0.35;0.30;;;;;;;;;;4925452;28;60403;-69
2023/10/12 06:16:42;;;;;;;1.08;0.25;;;;;;;;;;4925902;28;58403;-70
2023/10/12 06:19:08;;;;;;;;;;;;;;;;;;4926238;28;59717;-69
2023/10/12 06:21:42;;;;;;;0.40;0.38;;;;;;;;;;4924757;28;58497;-70
2023/10/12 06:24:11;;;;;;;0.65;0.25;;;;;;;;;;4925993;28;58398;-69
2023/10/12 06:26:36;;;;;;;0.43;0.43;;;;;;;;;;4926354;28;59541;-70
2023/10/12 06:29:01;;;;;;;0.80;0.30;;;;;;;;;;4925540;28;58490;-69
2023/10/12 06:31:30;;;;;;;0.80;0.65;;;;;;;;;;4924887;28;58513;-70
2023/10/12 06:33:56;;;;;;;0.45;0.30;;;;;;;;;;4925294;28;59670;-69
2023/10/12 06:36:37;;;;;;;1.05;0.43;;;;;;;;;;4924967;28;58464;-70
2023/10/12 06:40:08;;;;;;;0.38;0.38;;;;;;;;;;4926136;28;59566;-70
2023/10/12 06:46:50;;;;;;;1.15;0.38;;;;;;;;;;4925857;28;58408;-72
2023/10/12 06:49:22;;;;;;;0.40;0.40;;;;;;;;;;4925553;28;59033;-73
2023/10/12 06:51:53;;;;;;;0.25;0.25;;;;;;;;;;4924536;28;59364;-70
2023/10/12 06:54:32;;;;;;;0.57;0.25;;;;;;;;;;4926890;28;58750;-70
2023/10/12 06:57:52;;;;;;;0.20;0.20;;;;;;;;;;4924708;28;62372;-70
2023/10/12 06:59:59;;;;;;;0.20;0.20;;;;;;;;;;4923722;28;62031;-69
2023/10/12 07:02:27;;;;;;;0.50;0.50;;;;;;;;;;4924017;28;59945;-70
2023/10/12 07:04:56;;;;;;;0.65;0.40;;;;;;;;;;4925204;28;58398;-71
2023/10/12 07:07:41;;;;;;;0.95;0.40;;;;;;;;;;4925525;28;58530;-70
2023/10/12 07:12:42;;;;;;;0.68;0.30;;;;;;;;;;4924892;28;58552;-70
2023/10/12 07:15:19;;;;;;;0.17;0.10;;;;;;;;;;4924786;28;58736;-70
2023/10/12 07:17:49;;;;;;;0.40;0.40;;;;;;;;;;4922926;28;58514;-70
2023/10/12 07:20:25;;;;;;;0.70;0.43;;;;;;;;;;4906631;28;58513;-70
2023/10/12 07:22:51;;;;;;;1.23;0.50;;;;;;;;;;4923728;28;58520;-72
2023/10/12 07:25:22;;;;;;;0.20;0.20;;;;;;;;;;4923348;28;58429;-69
2023/10/12 07:27:56;;;;;;;0.30;0.22;;;;;;;;;;4921397;28;59287;-70
2023/10/12 07:32:55;;;;;;;0.30;0.25;;;;;;;;;;4923259;28;58597;-70
2023/10/12 07:35:31;;;;;;;0.83;0.30;;;;;;;;;;4922781;28;58621;-70
2023/10/12 07:38:00;;;;;;;0.50;0.40;;;;;;;;;;4923689;28;58820;-73
2023/10/12 07:40:25;;;;;;;;;;;;;;;;;;4923495;28;58547;-70
2023/10/12 07:42:51;;;;;;;0.50;0.30;;;;;;;;;;4923693;28;59618;-69
2023/10/12 07:45:19;;;;;;;0.53;0.33;;;;;;;;;;4924632;28;58590;-71
2023/10/12 07:47:49;;;;;;;0.57;0.57;;;;;;;;;;4923358;28;59562;-70
2023/10/12 07:50:15;;;;;;;0.60;0.50;;;;;;;;;;4921052;28;58498;-69
2023/10/12 07:52:46;;;;;;;0.30;0.20;;;;;;;;;;4924366;28;58420;-69
2023/10/12 07:55:12;;;;;;;0.50;0.30;;;;;;;;;;4922255;28;59388;-69
2023/10/12 07:57:37;;;;;;;0.25;0.20;;;;;;;;;;4922778;28;60029;-69
2023/10/12 08:05:33;;;;;;;0.63;0.10;;;;;;;;;;4922722;28;58458;-72
2023/10/12 08:08:08;;;;;;;0.47;0.20;;;;;;;;;;4923649;28;58906;-72
2023/10/12 08:13:04;;;;;;;0.38;0.38;;;;;;;;;;4923166;28;58803;-72
2023/10/12 08:15:49;;;;;;;0.23;0.23;;;;;;;;;;4923768;28;58934;-72
2023/10/12 08:19:23;;;;;;;0.75;0.40;;;;;;;;;;4922195;28;58983;-72
2023/10/12 08:21:01;;;;;;;0.10;0.10;;;;;;;;;;4923948;28;58477;-72
2023/10/12 08:23:26;;;;;;;0.28;0.20;;;;;;;;;;4922451;28;58445;-72
2023/10/12 08:25:57;;;;;;;0.22;0.20;;;;;;;;;;4921548;28;58472;-72
2023/10/12 08:28:22;;;;;;;0.57;0.30;;;;;;;;;;4922884;28;58554;-72
2023/10/12 08:31:02;;;;;;;0.23;0.20;;;;;;;;;;4921999;28;59065;-72
2023/10/12 08:38:53;;;;;;;;;;;;;;;;;;4922560;28;58618;-72
2023/10/12 08:43:52;;;;;;;0.17;0.15;;;;;;;;;;4922521;28;58492;-72
2023/10/12 08:47:09;;;;;;;0.60;0.50;;;;;;;;;;4922447;28;58376;-72
2023/10/12 08:52:18;;;;;;;0.25;0.25;;;;;;;;;;4917892;28;57692;-72
2023/10/12 08:54:45;;;;;;;0.25;0.20;;;;;;;;;;4921305;28;58593;-72
2023/10/12 08:57:19;;;;;;;0.83;0.40;;;;;;;;;;4924268;28;59680;-73
2023/10/12 08:59:57;;;;;;;0.60;0.28;;;;;;;;;;4921089;28;58448;-72
2023/10/12 09:02:22;;;;;;;0.63;0.25;;;;;;;;;;4923271;28;58439;-71
2023/10/12 09:04:48;;;;;;;0.97;0.60;;;;;;;;;;4924230;28;59516;-70
2023/10/12 09:07:19;;;;;;;0.32;0.10;;;;;;;;;;4922358;28;58872;-70
2023/10/12 09:09:55;;;;;;;0.60;0.30;;;;;;;;;;4921295;28;58755;-70
2023/10/12 09:12:21;;;;;;;0.28;0.28;;;;;;;;;;4922434;28;59963;-70
2023/10/12 09:14:47;;;;;;;0.45;0.40;;;;;;;;;;4922117;28;58780;-72
2023/10/12 09:17:26;;;;;;;0.23;0.23;;;;;;;;;;4922194;28;59545;-70
2023/10/12 09:19:53;;;;;;;0.43;0.22;;;;;;;;;;4922087;28;58900;-70
2023/10/12 09:22:27;;;;;;;0.20;0.10;;;;;;;;;;4921697;28;58304;-69
2023/10/12 09:24:53;;;;;;;1.45;0.50;;;;;;;;;;4922202;28;58451;-69
2023/10/12 09:27:26;;;;;;;0.28;0.10;;;;;;;;;;4922310;28;59306;-71
2023/10/12 09:29:57;;;;;;;0.30;0.17;;;;;;;;;;4921639;28;58351;-70
2023/10/12 09:32:25;;;;;;;0.20;0.20;;;;;;;;;;4920837;28;58777;-69
2023/10/12 09:35:11;;;;;;;0.40;0.30;;;;;;;;;;4921717;28;59110;-71
2023/10/12 09:37:49;;;;;;;0.73;0.20;;;;;;;;;;4921344;28;59575;-70
2023/10/12 09:40:38;;;;;;;0.43;0.38;;;;;;;;;;4921138;28;59172;-70
2023/10/12 09:43:07;;;;;;;0.30;0.30;;;;;;;;;;4922033;28;58462;-70
2023/10/12 09:45:35;;;;;;;0.30;0.22;;;;;;;;;;4922050;28;59437;-69
2023/10/12 09:48:05;;;;;;;0.20;0.20;;;;;;;;;;4922317;28;59060;-73
2023/10/12 09:50:32;;;;;;;0.52;0.20;;;;;;;;;;4921508;28;58480;-70
2023/10/12 09:52:58;;;;;;;0.50;0.25;;;;;;;;;;4922110;28;59551;-70
2023/10/12 09:55:32;;;;;;;0.20;0.20;;;;;;;;;;4921069;28;58785;-69
2023/10/12 09:58:12;;;;;;;0.45;0.45;;;;;;;;;;4922140;28;58512;-69
2023/10/12 10:00:55;;;;;;;1.30;0.40;;;;;;;;;;4920531;28;59456;-70
2023/10/12 10:03:21;;;;;;;0.45;0.40;;;;;;;;;;4922089;28;58437;-69
2023/10/12 10:05:54;;;;;;;0.65;0.30;;;;;;;;;;4922884;28;58507;-70
2023/10/12 10:08:20;;;;;;;0.13;0.13;;;;;;;;;;4921622;28;58556;-69
2023/10/12 10:10:45;;;;;;;0.38;0.30;;;;;;;;;;4920281;28;58444;-69
2023/10/12 10:13:31;;;;;;;0.33;0.30;;;;;;;;;;4922222;28;60661;-72
2023/10/12 10:15:56;;;;;;;0.85;0.45;;;;;;;;;;4922047;28;60125;-72
2023/10/12 10:18:25;;;;;;;0.20;0.20;;;;;;;;;;4921043;28;58362;-71
2023/10/12 10:20:56;;;;;;;0.38;0.20;;;;;;;;;;4922770;28;59589;-72
2023/10/12 10:23:22;;;;;;;0.17;0.10;;;;;;;;;;4922098;28;58445;-70
2023/10/12 10:25:56;;;;;;;0.22;0.22;;;;;;;;;;4902411;28;59739;-70
2023/10/12 10:28:32;;;;;;;0.73;0.20;;;;;;;;;;4927520;28;59204;-72
2023/10/12 10:30:59;;;;;;;0.43;0.30;;;;;;;;;;4921872;28;58500;-69
2023/10/12 10:33:25;;;;;;;1.25;0.52;;;;;;;;;;4920711;28;59696;-70
2023/10/12 10:36:00;;;;;;;0.47;0.20;;;;;;;;;;4921567;28;59041;-70
2023/10/12 10:38:32;;;;;;;0.22;0.15;;;;;;;;;;4921453;28;58362;-70
2023/10/12 10:41:05;;;;;;;0.20;0.20;;;;;;;;;;4922002;28;59430;-70
2023/10/12 10:43:31;;;;;;;0.65;0.65;;;;;;;;;;4921798;28;59000;-70
2023/10/12 10:45:56;;;;;;;0.73;0.40;;;;;;;;;;4922402;28;60303;-70
2023/10/12 10:48:27;;;;;;;1.02;0.57;;;;;;;;;;4919613;28;58412;-70
2023/10/12 10:50:52;;;;;;;0.95;0.45;;;;;;;;;;4921369;28;58404;-70
2023/10/12 10:53:19;;;;;;;0.20;0.20;;;;;;;;;;4921545;28;58536;-70
2023/10/12 10:55:47;;;;;;;0.25;0.25;;;;;;;;;;4913975;28;58696;-71
2023/10/12 10:58:14;;;;;;;0.35;0.30;;;;;;;;;;4922764;28;58468;-70
2023/10/12 11:00:45;;;;;;;0.30;0.20;;;;;;;;;;4924435;28;58831;-72
2023/10/12 11:03:10;;;;;;;0.43;0.40;;;;;;;;;;4926604;28;58600;-70
2023/10/12 11:05:37;;;;;;;1.80;0.32;;;;;;;;;;4925725;28;58468;-72
2023/10/12 11:08:19;;;;;;;0.40;0.37;;;;;;;;;;4924036;28;58601;-69
2023/10/12 11:11:25;;;;;;;0.40;0.25;;;;;;;;;;4925439;28;58628;-70
2023/10/12 11:13:40;;;;;;;0.28;0.28;;;;;;;;;;4922711;28;58942;-70
2023/10/12 11:16:22;;;;;;;0.40;0.40;;;;;;;;;;4922415;28;58448;-70
2023/10/12 11:18:51;;;;;;;0.52;0.40;;;;;;;;;;4924792;28;58435;-70
2023/10/12 11:21:17;;;;;;;0.20;0.10;;;;;;;;;;4925128;28;60266;-71
2023/10/12 11:23:44;;;;;;;0.57;0.40;;;;;;;;;;4923145;28;59736;-70
2023/10/12 11:26:19;;;;;;;0.45;0.30;;;;;;;;;;4923766;28;58470;-70
2023/10/12 11:28:48;;;;;;;0.32;0.22;;;;;;;;;;4923760;28;58833;-69
2023/10/12 11:31:20;;;;;;;0.55;0.10;;;;;;;;;;4923249;28;58528;-69
2023/10/12 11:33:49;;;;;;;0.50;0.32;;;;;;;;;;4923032;28;60322;-73
2023/10/12 11:36:18;;;;;;;0.20;0.20;;;;;;;;;;4923324;28;59036;-72
2023/10/12 11:38:43;;;;;;;0.32;0.10;;;;;;;;;;4923584;28;58433;-72
2023/10/12 11:41:12;;;;;;;0.13;0.13;;;;;;;;;;4924008;28;60092;-72
2023/10/12 11:43:45;;;;;;;0.65;0.20;;;;;;;;;;4922348;28;59225;-73
2023/10/12 11:46:10;;;;;;;1.00;0.32;;;;;;;;;;4922195;28;58855;-72
2023/10/12 11:48:35;;;;;;;0.23;0.17;;;;;;;;;;4923480;28;58785;-72
2023/10/12 11:51:11;;;;;;;0.20;0.20;;;;;;;;;;4924557;28;58452;-72
2023/10/12 11:53:38;;;;;;;0.50;0.50;;;;;;;;;;4926200;28;59787;-73
2023/10/12 11:56:11;;;;;;;0.38;0.30;;;;;;;;;;4922339;28;58484;-72
2023/10/12 11:58:36;;;;;;;0.25;0.25;;;;;;;;;;4922527;28;58021;-72
2023/10/12 12:01:01;;;;;;;0.63;0.22;;;;;;;;;;4923463;28;58453;-72
2023/10/12 12:03:26;;;;;;;1.00;0.50;;;;;;;;;;4922177;28;58876;-72
2023/10/12 12:05:52;;;;;;;0.20;0.20;;;;;;;;;;4925482;28;58659;-73
2023/10/12 12:08:20;;;;;;;0.55;0.45;;;;;;;;;;4924736;28;61014;-72
2023/10/12 12:10:46;;;;;;;0.13;0.10;;;;;;;;;;4922786;28;58882;-72
2023/10/12 12:13:12;;;;;;;0.43;0.30;;;;;;;;;;4923769;28;59508;-71
2023/10/12 12:15:47;;;;;;;0.30;0.28;;;;;;;;;;4922441;28;59168;-70
2023/10/12 12:18:19;;;;;;;0.75;0.32;;;;;;;;;;4922834;28;58418;-71
2023/10/12 12:20:49;;;;;;;0.90;0.52;;;;;;;;;;4923199;28;59418;-71
2023/10/12 12:23:15;;;;;;;0.82;0.20;;;;;;;;;;4920002;28;58547;-72
2023/10/12 12:25:40;;;;;;;0.90;0.55;;;;;;;;;;4924096;28;58701;-71
2023/10/12 12:28:14;;;;;;;1.17;0.40;;;;;;;;;;4922671;28;59368;-72
2023/10/12 12:30:46;;;;;;;1.52;0.50;;;;;;;;;;4922159;28;59247;-71
2023/10/12 12:33:15;;;;;;;1.10;0.47;;;;;;;;;;4925585;28;58402;-71
2023/10/12 12:35:40;;;;;;;1.08;0.60;;;;;;;;;;4921871;28;59178;-71
2023/10/12 12:38:07;;;;;;;1.27;0.50;;;;;;;;;;4923182;28;58442;-71
2023/10/12 12:40:38;;;;;;;1.90;0.50;;;;;;;;;;4923261;28;58770;-71
2023/10/12 12:43:04;;;;;;;1.45;0.70;;;;;;;;;;4923484;28;59003;-73
2023/10/12 12:45:30;;;;;;;1.35;0.65;;;;;;;;;;4923240;28;58502;-70
2023/10/12 12:47:55;;;;;;;1.88;0.73;;;;;;;;;;4925244;28;59484;-70
2023/10/12 12:50:21;;;;;;;3.60;0.70;;;;;;;;;;4922406;28;58801;-71
2023/10/12 12:52:46;;;;;;;3.43;1.37;;;;;;;;;;4924320;28;59489;-70
2023/10/12 12:55:16;;;;;;;1.77;1.20;;;;;;;;;;4921665;28;60760;-71
2023/10/12 12:57:42;;;;;;;1.60;0.85;;;;;;;;;;4922885;28;58346;-72
2023/10/12 13:00:08;;;;;;;3.20;0.75;;;;;;;;;;4923463;28;58865;-71
2023/10/12 13:02:33;;;;;;;11.48;1.02;;;;;;;;;;4921852;28;58771;-70
2023/10/12 13:05:00;;;;;;;1.63;0.70;;;;;;;;;;4923899;28;58439;-71
2023/10/12 13:07:25;;;;;;;1.48;0.80;;;;;;;;;;4921203;28;60943;-71
2023/10/12 13:09:51;;;;;;;2.00;0.70;;;;;;;;;;4921197;28;59381;-72
2023/10/12 13:12:16;;;;;;;2.05;1.13;;;;;;;;;;4922250;28;58555;-71
2023/10/12 13:14:42;;;;;;;3.15;1.80;;;;;;;;;;4923546;28;58419;-72
2023/10/12 13:17:08;;;;;;;1.67;0.90;;;;;;;;;;4922469;28;58538;-70
2023/10/12 13:19:34;;;;;;;4.20;1.38;;;;;;;;;;4923593;28;60495;-71
2023/10/12 13:21:59;;;;;;;2.30;0.90;;;;;;;;;;4920967;28;59206;-71
2023/10/12 13:24:24;;;;;;;3.60;1.07;;;;;;;;;;4923658;28;58095;-70
2023/10/12 13:26:49;;;;;;;3.23;1.00;;;;;;;;;;4924204;28;59451;-71
2023/10/12 13:29:14;;;;;;;2.42;0.47;;;;;;;;;;4922030;28;58692;-72
2023/10/12 13:31:40;;;;;;;4.87;1.23;;;;;;;;;;4922985;28;58207;-73
2023/10/12 13:34:05;;;;;;;1.55;0.38;;;;;;;;;;4922554;28;58616;-70
2023/10/12 13:36:31;;;;;;;2.28;0.77;;;;;;;;;;4922279;28;58442;-72
2023/10/12 13:38:56;;;;;;;3.25;0.95;;;;;;;;;;4923340;28;58447;-70
2023/10/12 13:41:22;;;;;;;1.63;1.00;;;;;;;;;;4920983;28;58454;-72
2023/10/12 13:43:48;;;;;;;4.07;0.77;;;;;;;;;;4922950;28;58578;-71
2023/10/12 13:46:15;;;;;;;1.95;0.80;;;;;;;;;;4923262;28;59588;-71
2023/10/12 13:48:40;;;;;;;2.55;0.82;;;;;;;;;;4922553;28;58834;-71
2023/10/12 13:51:29;;;;;;;2.38;0.95;;;;;;;;;;4923027;28;58221;-70
2023/10/12 13:53:53;;;;;;;2.33;1.00;;;;;;;;;;4923941;28;64868;-70
2023/10/12 13:56:24;;;;;;;0.68;0.50;;;;;;;;;;4904413;28;60308;-71
2023/10/12 13:58:52;;;;;;;3.55;1.00;;;;;;;;;;4922907;28;58654;-73
2023/10/12 14:01:20;;;;;;;1.23;0.63;;;;;;;;;;4920792;28;58651;-71
2023/10/12 14:03:50;;;;;;;2.95;0.90;;;;;;;;;;4922957;28;58362;-71
2023/10/12 14:06:16;;;;;;;1.50;0.65;;;;;;;;;;4902596;28;59511;-71
2023/10/12 14:08:42;;;;;;;1.88;0.88;;;;;;;;;;4918523;28;59408;-70
2023/10/12 14:11:12;;;;;;;3.83;0.77;;;;;;;;;;4922027;28;59302;-71
2023/10/12 14:13:38;;;;;;;2.80;0.77;;;;;;;;;;4920720;28;59159;-71
2023/10/12 14:16:06;;;;;;;2.85;1.45;;;;;;;;;;4920590;28;59008;-71
2023/10/12 14:18:31;;;;;;;2.40;0.50;;;;;;;;;;4920700;28;58580;-70
2023/10/12 14:20:56;;;;;;;4.00;0.70;;;;;;;;;;4920735;28;58646;-71
2023/10/12 14:23:26;;;;;;;3.75;0.95;;;;;;;;;;4918558;28;58528;-73
2023/10/12 14:25:52;;;;;;;3.38;0.70;;;;;;;;;;4921563;28;60525;-70
2023/10/12 14:28:18;;;;;;;2.30;0.88;;;;;;;;;;4920881;28;59719;-71
2023/10/12 14:30:50;;;;;;;1.10;0.57;;;;;;;;;;4920785;28;58783;-71
2023/10/12 14:33:16;;;;;;;2.50;0.63;;;;;;;;;;4923228;28;58654;-71
2023/10/12 14:35:42;;;;;;;2.72;0.43;;;;;;;;;;4923180;28;60061;-70
2023/10/12 14:38:07;;;;;;;1.30;0.73;;;;;;;;;;4923149;28;58733;-73
2023/10/12 14:40:33;;;;;;;2.55;1.17;;;;;;;;;;4923178;28;60025;-71
2023/10/12 14:43:05;;;;;;;3.00;1.13;;;;;;;;;;4924489;28;58388;-72
2023/10/12 14:45:31;;;;;;;0.90;0.30;;;;;;;;;;4924739;28;59978;-72
2023/10/12 14:47:59;;;;;;;5.78;1.10;;;;;;;;;;4924353;28;58853;-71
2023/10/12 14:50:24;;;;;;;3.50;0.70;;;;;;;;;;4924575;28;58541;-71
2023/10/12 14:52:52;;;;;;;2.33;1.17;;;;;;;;;;4923265;28;58600;-71
2023/10/12 14:55:17;;;;;;;1.08;0.60;;;;;;;;;;4919857;28;59019;-70
2023/10/12 14:57:44;;;;;;;2.07;0.70;;;;;;;;;;4922351;28;58449;-71
2023/10/12 15:00:24;;;;;;;5.68;0.88;;;;;;;;;;4924875;28;58776;-72
2023/10/12 15:02:53;;;;;;;2.90;0.95;;;;;;;;;;4925389;28;62142;-71
2023/10/12 15:05:19;;;;;;;1.38;0.85;;;;;;;;;;4910225;28;58465;-71
2023/10/12 15:07:48;;;;;;;2.28;0.50;;;;;;;;;;4916083;28;58682;-71
2023/10/12 15:10:13;;;;;;;0.88;0.30;;;;;;;;;;4924627;28;58435;-71
2023/10/12 15:12:40;;;;;;;2.20;0.77;;;;;;;;;;4925052;28;60361;-71
2023/10/12 15:15:08;;;;;;;1.20;0.52;;;;;;;;;;4924002;28;58562;-71
2023/10/12 15:17:35;;;;;;;2.92;0.30;;;;;;;;;;4923600;28;58456;-70
2023/10/12 15:20:00;;;;;;;0.55;0.30;;;;;;;;;;4923723;28;59692;-71
2023/10/12 15:22:25;;;;;;;1.93;0.70;;;;;;;;;;4922659;28;58760;-71
2023/10/12 15:24:52;;;;;;;2.17;0.93;;;;;;;;;;4926077;28;58434;-71
2023/10/12 15:27:17;;;;;;;1.08;0.50;;;;;;;;;;4923770;28;59481;-70
2023/10/12 15:29:42;;;;;;;1.70;0.70;;;;;;;;;;4925270;28;58388;-71
2023/10/12 15:32:07;;;;;;;3.78;0.73;;;;;;;;;;4924561;28;58697;-72
2023/10/12 15:34:33;;;;;;;2.07;0.50;;;;;;;;;;4929179;28;59055;-70
2023/10/12 15:37:01;;;;;;;3.73;1.63;;;;;;;;;;4907389;28;58577;-69
2023/10/12 15:39:27;;;;;;;1.80;0.70;;;;;;;;;;4920330;28;59439;-67
2023/10/12 15:41:52;;;;;;;4.93;1.00;;;;;;;;;;4923394;28;59559;-69
2023/10/12 15:44:17;;;;;;;3.50;0.87;;;;;;;;;;4923948;28;58380;-70
2023/10/12 15:46:44;;;;;;;1.10;0.87;;;;;;;;;;4923067;28;58784;-69
2023/10/12 15:49:09;;;;;;;4.55;0.60;;;;;;;;;;4922992;28;58189;-68
2023/10/12 15:51:35;;;;;;;1.33;0.60;;;;;;;;;;4921867;28;59204;-67
2023/10/12 15:54:00;;;;;;;1.60;0.93;;;;;;;;;;4924081;28;59744;-69
2023/10/12 15:56:25;;;;;;;2.47;0.95;;;;;;;;;;4922175;28;58386;-71
2023/10/12 15:58:52;;;;;;;2.15;0.75;;;;;;;;;;4911826;28;59643;-70
2023/10/12 16:01:17;;;;;;;2.80;0.90;;;;;;;;;;4903567;28;59037;-70
2023/10/12 16:03:43;;;;;;;4.43;0.63;;;;;;;;;;4908347;28;58513;-69
2023/10/12 16:06:08;;;;;;;1.83;0.60;;;;;;;;;;4922138;28;60234;-70
2023/10/12 16:08:33;;;;;;;2.03;0.70;;;;;;;;;;4923653;28;59195;-69
2023/10/12 16:10:59;;;;;;;4.93;1.00;;;;;;;;;;4922534;28;59069;-68
2023/10/12 16:13:24;;;;;;;6.20;1.23;;;;;;;;;;4921795;28;59179;-65